createdAt,value
2023-05-05T00:01:11.894Z,9.40
2023-05-05T00:03:40.124Z,9.40
2023-05-05T00:06:08.048Z,9.41
2023-05-05T00:08:35.695Z,9.31
2023-05-05T00:11:03.288Z,9.26
2023-05-05T00:13:31.159Z,9.26
2023-05-05T00:15:58.727Z,9.21
2023-05-05T00:18:28.176Z,9.30
2023-05-05T00:20:55.840Z,9.33
2023-05-05T00:23:23.379Z,9.27
2023-05-05T00:25:51.067Z,9.18
2023-05-05T00:28:18.717Z,9.20
2023-05-05T00:30:46.292Z,9.28
2023-05-05T00:33:13.932Z,9.27
2023-05-05T00:35:43.145Z,9.26
2023-05-05T00:38:10.720Z,9.23
2023-05-05T00:40:38.429Z,9.20
2023-05-05T00:43:06.144Z,9.26
2023-05-05T00:45:33.706Z,9.19
2023-05-05T00:48:02.060Z,9.07
2023-05-05T00:50:30.852Z,9.11
2023-05-05T00:53:02.528Z,9.22
2023-05-05T00:55:31.057Z,9.17
2023-05-05T00:57:59.434Z,9.13
2023-05-05T01:00:27.684Z,9.11
2023-05-05T01:02:56.480Z,9.08
2023-05-05T01:05:25.734Z,9.05
2023-05-05T01:08:08.030Z,9.08
2023-05-05T01:10:39.210Z,9.06
2023-05-05T01:13:21.462Z,8.99
2023-05-05T01:15:53.350Z,8.92
2023-05-05T01:18:30.771Z,8.88
2023-05-05T01:21:06.049Z,8.95
2023-05-05T01:24:00.222Z,9.04
2023-05-05T01:26:45.116Z,9.04
2023-05-05T01:29:39.333Z,8.97
2023-05-05T01:32:11.708Z,8.95
2023-05-05T01:34:45.112Z,8.98
2023-05-05T01:37:19.413Z,8.85
2023-05-05T01:39:52.164Z,8.90
2023-05-05T01:42:22.209Z,8.81
2023-05-05T01:44:52.964Z,8.82
2023-05-05T01:47:24.063Z,8.85
2023-05-05T01:49:53.640Z,8.78
2023-05-05T01:52:22.647Z,8.84
2023-05-05T01:54:51.517Z,8.82
2023-05-05T01:57:21.508Z,8.89
2023-05-05T01:59:51.821Z,8.77
2023-05-05T02:02:21.817Z,8.84
2023-05-05T02:04:53.254Z,8.81
2023-05-05T02:07:22.414Z,8.82
2023-05-05T02:09:49.955Z,8.63
2023-05-05T02:12:20.173Z,8.67
2023-05-05T02:14:49.031Z,8.67
2023-05-05T02:17:17.933Z,8.77
2023-05-05T02:19:46.881Z,8.74
2023-05-05T02:22:16.773Z,8.65
2023-05-05T02:24:44.773Z,8.72
2023-05-05T02:27:13.165Z,8.62
2023-05-05T02:29:48.552Z,8.66
2023-05-05T02:32:21.371Z,8.67
2023-05-05T02:34:51.361Z,8.66
2023-05-05T02:37:24.109Z,8.61
2023-05-05T02:40:04.518Z,8.57
2023-05-05T02:42:38.131Z,8.52
2023-05-05T02:45:13.660Z,8.48
2023-05-05T02:47:44.446Z,8.50
2023-05-05T02:50:12.777Z,8.35
2023-05-05T02:52:48.516Z,8.34
2023-05-05T02:55:17.490Z,8.36
2023-05-05T02:57:50.874Z,8.35
2023-05-05T03:00:24.870Z,8.36
2023-05-05T03:03:05.826Z,8.37
2023-05-05T03:05:42.571Z,8.33
2023-05-05T03:08:16.986Z,8.35
2023-05-05T03:10:48.751Z,8.33
2023-05-05T03:13:19.482Z,8.25
2023-05-05T03:15:50.148Z,8.26
2023-05-05T03:18:23.495Z,8.19
2023-05-05T03:20:58.027Z,8.12
2023-05-05T03:23:27.074Z,8.16
2023-05-05T03:25:58.889Z,8.18
2023-05-05T03:28:40.279Z,8.17
2023-05-05T03:31:15.888Z,8.14
2023-05-05T03:33:43.670Z,8.16
2023-05-05T03:36:11.452Z,8.13
2023-05-05T03:38:41.080Z,8.10
2023-05-05T03:41:09.725Z,8.11
2023-05-05T03:43:39.177Z,8.06
2023-05-05T03:46:07.678Z,8.10
2023-05-05T03:48:35.437Z,8.17
2023-05-05T03:51:03.298Z,8.06
2023-05-05T03:53:33.281Z,8.00
2023-05-05T03:56:04.985Z,8.01
2023-05-05T03:58:32.569Z,8.00
2023-05-05T04:01:00.299Z,7.94
2023-05-05T04:03:27.955Z,8.02
2023-05-05T04:05:55.786Z,8.03
2023-05-05T04:08:23.411Z,8.06
2023-05-05T04:10:51.554Z,8.06
2023-05-05T04:13:20.504Z,8.02
2023-05-05T04:15:49.417Z,7.94
2023-05-05T04:18:18.477Z,8.01
2023-05-05T04:20:46.605Z,7.94
2023-05-05T04:23:14.430Z,8.05
2023-05-05T04:25:42.384Z,8.10
2023-05-05T04:28:11.083Z,8.09
2023-05-05T04:30:40.475Z,8.08
2023-05-05T04:33:08.258Z,8.16
2023-05-05T04:35:36.346Z,8.14
2023-05-05T04:38:04.115Z,8.23
2023-05-05T04:40:32.077Z,8.14
2023-05-05T04:43:00.196Z,8.21
2023-05-05T04:45:27.834Z,8.20
2023-05-05T04:47:57.167Z,8.07
2023-05-05T04:50:24.882Z,8.14
2023-05-05T04:52:52.854Z,8.11
2023-05-05T04:55:20.740Z,8.18
2023-05-05T04:57:48.313Z,8.28
2023-05-05T05:00:16.259Z,8.28
2023-05-05T05:02:43.906Z,8.38
2023-05-05T05:05:12.916Z,8.34
2023-05-05T05:07:40.761Z,8.47
2023-05-05T05:10:09.471Z,8.47
2023-05-05T05:12:37.671Z,8.57
2023-05-05T05:15:06.294Z,8.72
2023-05-05T05:17:33.902Z,8.73
2023-05-05T05:20:04.709Z,8.70
2023-05-05T05:22:38.189Z,8.63
2023-05-05T05:25:08.836Z,8.64
2023-05-05T05:27:36.423Z,8.68
2023-05-05T05:30:04.485Z,8.82
2023-05-05T05:32:33.490Z,8.71
2023-05-05T05:35:01.564Z,8.70
2023-05-05T05:37:30.936Z,8.74
2023-05-05T05:40:00.724Z,8.61
2023-05-05T05:42:31.478Z,8.63
2023-05-05T05:44:59.773Z,8.58
2023-05-05T05:47:28.014Z,8.69
2023-05-05T05:49:56.777Z,8.69
2023-05-05T05:52:24.350Z,8.75
2023-05-05T05:54:52.427Z,8.80
2023-05-05T05:57:22.367Z,8.77
2023-05-05T05:59:50.425Z,8.98
2023-05-05T06:02:19.102Z,9.04
2023-05-05T06:04:47.093Z,9.20
2023-05-05T06:07:15.243Z,9.30
2023-05-05T06:09:43.025Z,9.36
2023-05-05T06:12:10.733Z,9.47
2023-05-05T06:14:39.681Z,9.50
2023-05-05T06:17:07.416Z,9.52
2023-05-05T06:19:39.211Z,9.66
2023-05-05T06:22:06.834Z,9.74
2023-05-05T06:24:35.346Z,9.94
2023-05-05T06:27:03.573Z,9.99
2023-05-05T06:29:31.128Z,10.15
2023-05-05T06:32:01.117Z,10.17
2023-05-05T06:34:28.645Z,10.24
2023-05-05T06:36:56.166Z,10.42
2023-05-05T06:39:23.718Z,10.52
2023-05-05T06:41:51.270Z,10.64
2023-05-05T06:44:18.821Z,10.60
2023-05-05T06:46:46.411Z,10.60
2023-05-05T06:49:15.383Z,10.69
2023-05-05T06:51:43.085Z,10.77
2023-05-05T06:54:10.724Z,10.98
2023-05-05T06:56:38.234Z,11.04
2023-05-05T06:59:05.734Z,11.20
2023-05-05T07:01:33.254Z,11.17
2023-05-05T07:04:01.155Z,11.30
2023-05-05T07:06:30.138Z,11.43
2023-05-05T07:08:57.861Z,11.44
2023-05-05T07:11:25.620Z,11.52
2023-05-05T07:13:53.166Z,11.62
2023-05-05T07:16:20.794Z,11.73
2023-05-05T07:18:48.321Z,11.99
2023-05-05T07:21:15.845Z,12.04
2023-05-05T07:23:47.574Z,12.07
2023-05-05T07:26:15.409Z,11.89
2023-05-05T07:28:43.877Z,11.81
2023-05-05T07:31:11.439Z,11.75
2023-05-05T07:33:39.029Z,11.93
2023-05-05T07:36:06.916Z,11.81
2023-05-05T07:38:34.616Z,11.89
2023-05-05T07:41:03.927Z,11.75
2023-05-05T07:43:31.556Z,11.82
2023-05-05T07:45:59.243Z,11.72
2023-05-05T07:48:28.186Z,11.91
2023-05-05T07:50:55.824Z,11.93
2023-05-05T07:53:23.399Z,12.03
2023-05-05T07:55:51.141Z,12.14
2023-05-05T07:58:19.992Z,12.22
2023-05-05T08:00:49.131Z,12.31
2023-05-05T08:03:16.780Z,12.38
2023-05-05T08:05:44.325Z,12.48
2023-05-05T08:08:11.917Z,12.35
2023-05-05T08:10:39.477Z,12.27
2023-05-05T08:13:07.128Z,12.20
2023-05-05T08:15:36.036Z,12.29
2023-05-05T08:18:03.603Z,12.43
2023-05-05T08:20:31.277Z,12.54
2023-05-05T08:22:58.849Z,12.63
2023-05-05T08:25:27.054Z,12.68
2023-05-05T08:27:54.857Z,12.68
2023-05-05T08:30:22.440Z,12.91
2023-05-05T08:32:51.434Z,12.95
2023-05-05T08:35:19.198Z,13.07
2023-05-05T08:37:46.763Z,13.39
2023-05-05T08:40:15.177Z,13.79
2023-05-05T08:42:44.492Z,13.97
2023-05-05T08:45:12.392Z,13.87
2023-05-05T08:47:40.472Z,13.81
2023-05-05T08:50:11.695Z,13.98
2023-05-05T08:52:41.236Z,14.22
2023-05-05T08:55:16.176Z,14.34
2023-05-05T08:57:51.441Z,14.47
2023-05-05T09:00:19.992Z,14.51
2023-05-05T09:02:48.601Z,14.52
2023-05-05T09:05:18.006Z,14.48
2023-05-05T09:07:47.103Z,14.53
2023-05-05T09:10:14.664Z,14.61
2023-05-05T09:12:42.568Z,14.53
2023-05-05T09:15:12.013Z,14.38
2023-05-05T09:17:40.142Z,14.05
2023-05-05T09:20:10.001Z,14.10
2023-05-05T09:22:39.819Z,14.04
2023-05-05T09:25:09.745Z,13.89
2023-05-05T09:27:38.252Z,14.11
2023-05-05T09:30:07.000Z,14.05
2023-05-05T09:32:44.839Z,14.23
2023-05-05T09:35:12.637Z,14.20
2023-05-05T09:37:41.888Z,14.47
2023-05-05T09:40:10.811Z,14.57
2023-05-05T09:42:39.356Z,14.63
2023-05-05T09:45:25.859Z,14.45
2023-05-05T09:47:59.229Z,14.63
2023-05-05T09:50:30.541Z,14.59
2023-05-05T09:53:01.187Z,14.44
2023-05-05T09:55:30.740Z,14.39
2023-05-05T09:57:58.355Z,14.18
2023-05-05T10:00:38.778Z,14.11
2023-05-05T10:03:06.515Z,14.11
2023-05-05T10:05:34.359Z,14.02
2023-05-05T10:08:13.779Z,14.00
2023-05-05T10:10:48.281Z,13.95
2023-05-05T10:13:19.051Z,13.98
2023-05-05T10:15:48.166Z,14.05
2023-05-05T10:18:16.983Z,14.09
2023-05-05T10:20:46.525Z,14.20
2023-05-05T10:23:19.301Z,14.20
2023-05-05T10:25:52.977Z,14.27
2023-05-05T10:28:27.893Z,14.35
2023-05-05T10:30:59.242Z,14.43
2023-05-05T10:33:35.129Z,14.32
2023-05-05T10:36:06.528Z,14.49
2023-05-05T10:38:36.876Z,14.70
2023-05-05T10:41:04.902Z,14.96
2023-05-05T10:43:32.497Z,15.05
2023-05-05T10:46:01.342Z,15.13
2023-05-05T10:48:35.470Z,15.21
2023-05-05T10:51:31.136Z,15.14
2023-05-05T10:54:13.649Z,15.26
2023-05-05T10:56:42.793Z,15.11
2023-05-05T10:59:40.892Z,15.14
2023-05-05T11:02:28.303Z,15.40
2023-05-05T11:05:21.324Z,15.93
2023-05-05T11:07:50.200Z,16.39
2023-05-05T11:10:22.896Z,16.59
2023-05-05T11:13:19.802Z,16.59
2023-05-05T11:15:48.024Z,16.47
2023-05-05T11:18:36.383Z,16.29
2023-05-05T11:21:18.277Z,16.33
2023-05-05T11:23:48.398Z,16.26
2023-05-05T11:26:19.278Z,16.19
2023-05-05T11:29:02.030Z,16.23
2023-05-05T11:31:30.571Z,16.14
2023-05-05T11:34:36.978Z,16.16
2023-05-05T11:37:08.814Z,16.21
2023-05-05T11:39:43.619Z,15.98
2023-05-05T11:42:26.037Z,16.14
2023-05-05T11:44:54.478Z,16.10
2023-05-05T11:47:27.313Z,16.20
2023-05-05T11:49:55.499Z,16.07
2023-05-05T11:52:26.266Z,16.20
2023-05-05T11:54:53.930Z,16.20
2023-05-05T11:57:29.760Z,16.26
2023-05-05T11:59:59.472Z,16.39
2023-05-05T12:02:29.556Z,16.51
2023-05-05T12:04:58.031Z,16.67
2023-05-05T12:07:26.839Z,16.48
2023-05-05T12:09:55.067Z,16.49
2023-05-05T12:12:35.439Z,16.26
2023-05-05T12:15:03.261Z,16.25
2023-05-05T12:17:38.646Z,16.17
2023-05-05T12:20:07.343Z,15.98
2023-05-05T12:22:35.220Z,16.00
2023-05-05T12:25:04.682Z,16.06
2023-05-05T12:27:33.599Z,16.09
2023-05-05T12:30:13.137Z,16.09
2023-05-05T12:32:41.398Z,15.84
2023-05-05T12:35:10.569Z,15.99
2023-05-05T12:37:38.954Z,15.92
2023-05-05T12:40:08.972Z,15.90
2023-05-05T12:42:41.903Z,15.83
2023-05-05T12:45:17.950Z,15.77
2023-05-05T12:47:45.531Z,15.77
2023-05-05T12:50:13.247Z,15.61
2023-05-05T12:52:43.751Z,15.51
2023-05-05T12:55:11.911Z,15.41
2023-05-05T12:58:00.346Z,15.11
2023-05-05T13:00:29.224Z,15.08
2023-05-05T13:02:57.472Z,15.01
2023-05-05T13:05:32.537Z,15.06
2023-05-05T13:08:00.447Z,15.09
2023-05-05T13:10:28.218Z,15.17
2023-05-05T13:12:57.790Z,15.18
2023-05-05T13:15:25.822Z,15.26
2023-05-05T13:17:59.964Z,15.47
2023-05-05T13:20:27.762Z,15.58
2023-05-05T13:22:55.449Z,15.47
2023-05-05T13:25:23.053Z,15.56
2023-05-05T13:27:50.632Z,15.44
2023-05-05T13:30:20.556Z,15.41
2023-05-05T13:32:48.167Z,15.35
2023-05-05T13:35:16.591Z,15.41
2023-05-05T13:37:45.894Z,15.48
2023-05-05T13:40:14.498Z,15.56
2023-05-05T13:42:42.095Z,15.50
2023-05-05T13:45:10.652Z,15.50
2023-05-05T13:47:40.833Z,15.44
2023-05-05T13:50:09.030Z,15.47
2023-05-05T13:52:37.332Z,15.58
2023-05-05T13:55:05.933Z,15.60
2023-05-05T13:57:33.591Z,15.19
2023-05-05T14:00:01.170Z,15.39
2023-05-05T14:02:28.741Z,15.56
2023-05-05T14:04:57.667Z,15.89
2023-05-05T14:07:25.231Z,15.78
2023-05-05T14:09:52.776Z,16.21
2023-05-05T14:12:20.427Z,16.29
2023-05-05T14:14:47.990Z,16.13
2023-05-05T14:17:15.731Z,16.14
2023-05-05T14:19:44.338Z,15.88
2023-05-05T14:22:13.237Z,15.85
2023-05-05T14:24:40.909Z,15.79
2023-05-05T14:27:08.596Z,15.94
2023-05-05T14:29:36.106Z,15.71
2023-05-05T14:32:03.758Z,15.84
2023-05-05T14:34:31.456Z,15.72
2023-05-05T14:36:59.001Z,15.77
2023-05-05T14:39:27.885Z,15.79
2023-05-05T14:41:55.432Z,15.66
2023-05-05T14:44:23.012Z,15.56
2023-05-05T14:46:51.253Z,15.81
2023-05-05T14:49:18.854Z,15.92
2023-05-05T14:51:46.385Z,16.07
2023-05-05T14:54:26.905Z,15.93
2023-05-05T14:56:58.237Z,15.78
2023-05-05T14:59:26.195Z,15.60
2023-05-05T15:01:53.853Z,15.47
2023-05-05T15:04:21.482Z,15.27
2023-05-05T15:06:49.080Z,15.15
2023-05-05T15:09:18.012Z,15.15
2023-05-05T15:11:45.973Z,14.86
2023-05-05T15:14:14.903Z,14.78
2023-05-05T15:16:42.482Z,14.74
2023-05-05T15:19:10.078Z,14.53
2023-05-05T15:21:37.625Z,14.53
2023-05-05T15:24:05.879Z,14.51
2023-05-05T15:26:33.465Z,14.39
2023-05-05T15:29:01.011Z,14.29
2023-05-05T15:31:29.967Z,14.41
2023-05-05T15:33:57.535Z,14.39
2023-05-05T15:36:25.078Z,14.28
2023-05-05T15:38:52.719Z,14.25
2023-05-05T15:41:20.485Z,14.35
2023-05-05T15:43:47.989Z,14.36
2023-05-05T15:46:15.612Z,14.55
2023-05-05T15:48:44.490Z,14.38
2023-05-05T15:51:12.496Z,14.41
2023-05-05T15:53:40.013Z,14.36
2023-05-05T15:56:07.924Z,14.31
2023-05-05T15:58:36.607Z,14.16
2023-05-05T16:01:04.293Z,14.09
2023-05-05T16:03:31.956Z,13.84
2023-05-05T16:06:00.920Z,13.78
2023-05-05T16:08:29.039Z,13.91
2023-05-05T16:10:56.855Z,13.74
2023-05-05T16:13:24.418Z,13.68
2023-05-05T16:15:52.080Z,13.72
2023-05-05T16:18:19.615Z,13.64
2023-05-05T16:20:47.240Z,13.66
2023-05-05T16:23:16.263Z,13.47
2023-05-05T16:25:43.769Z,13.48
2023-05-05T16:28:11.329Z,13.36
2023-05-05T16:30:39.768Z,13.36
2023-05-05T16:33:07.547Z,13.32
2023-05-05T16:35:36.078Z,13.31
2023-05-05T16:38:03.695Z,13.23
2023-05-05T16:40:32.627Z,13.23
2023-05-05T16:43:00.189Z,13.20
2023-05-05T16:45:27.713Z,13.13
2023-05-05T16:47:56.076Z,12.99
2023-05-05T16:50:23.828Z,12.98
2023-05-05T16:52:51.625Z,12.81
2023-05-05T16:55:19.519Z,12.82
2023-05-05T16:57:48.482Z,12.86
2023-05-05T17:00:16.457Z,12.92
2023-05-05T17:02:44.030Z,12.86
2023-05-05T17:05:11.817Z,12.86
2023-05-05T17:07:39.698Z,12.89
2023-05-05T17:10:08.712Z,12.88
2023-05-05T17:12:36.334Z,12.86
2023-05-05T17:15:06.059Z,12.76
2023-05-05T17:17:33.696Z,12.77
2023-05-05T17:20:03.006Z,12.73
2023-05-05T17:22:30.577Z,12.64
2023-05-05T17:24:58.131Z,12.62
2023-05-05T17:27:25.763Z,12.64
2023-05-05T17:29:53.663Z,12.64
2023-05-05T17:32:22.592Z,12.59
2023-05-05T17:34:50.168Z,12.60
2023-05-05T17:37:17.680Z,12.54
2023-05-05T17:39:45.256Z,12.53
2023-05-05T17:42:12.794Z,12.57
2023-05-05T17:44:40.338Z,12.53
2023-05-05T17:47:08.555Z,12.50
2023-05-05T17:49:37.411Z,12.56
2023-05-05T17:52:05.406Z,12.38
2023-05-05T17:54:33.022Z,12.34
2023-05-05T17:57:00.545Z,12.36
2023-05-05T17:59:28.107Z,12.41
2023-05-05T18:01:55.673Z,12.42
2023-05-05T18:04:23.804Z,12.46
2023-05-05T18:06:55.600Z,12.43
2023-05-05T18:09:23.555Z,12.41
2023-05-05T18:11:53.005Z,12.43
2023-05-05T18:14:21.135Z,12.29
2023-05-05T18:16:50.281Z,12.20
2023-05-05T18:19:19.233Z,12.03
2023-05-05T18:21:46.890Z,11.94
2023-05-05T18:24:20.276Z,11.98
2023-05-05T18:26:49.881Z,11.78
2023-05-05T18:29:18.550Z,11.81
2023-05-05T18:31:48.332Z,11.85
2023-05-05T18:34:16.884Z,11.80
2023-05-05T18:36:44.546Z,11.65
2023-05-05T18:39:12.254Z,11.64
2023-05-05T18:41:41.190Z,11.46
2023-05-05T18:44:08.781Z,11.37
2023-05-05T18:46:36.434Z,11.26
2023-05-05T18:49:04.496Z,11.34
2023-05-05T18:51:32.152Z,11.16
2023-05-05T18:54:00.827Z,11.15
2023-05-05T18:56:28.770Z,11.13
2023-05-05T18:58:57.697Z,10.98
2023-05-05T19:01:25.264Z,10.78
2023-05-05T19:03:52.926Z,10.82
2023-05-05T19:06:20.492Z,10.78
2023-05-05T19:08:48.043Z,10.74
2023-05-05T19:11:15.617Z,10.66
2023-05-05T19:13:43.297Z,10.54
2023-05-05T19:16:12.539Z,10.48
2023-05-05T19:18:40.350Z,10.44
2023-05-05T19:21:08.014Z,10.53
2023-05-05T19:23:36.051Z,10.43
2023-05-05T19:26:05.535Z,10.18
2023-05-05T19:28:33.175Z,10.21
2023-05-05T19:31:00.732Z,10.08
2023-05-05T19:33:29.753Z,9.98
2023-05-05T19:35:57.475Z,10.03
2023-05-05T19:38:25.001Z,9.96
2023-05-05T19:40:53.983Z,9.80
2023-05-05T19:43:22.151Z,9.79
2023-05-05T19:45:49.834Z,9.76
2023-05-05T19:48:17.385Z,9.66
2023-05-05T19:50:46.443Z,9.60
2023-05-05T19:53:14.200Z,9.49
2023-05-05T19:55:41.788Z,9.49
2023-05-05T19:58:09.311Z,9.54
2023-05-05T20:00:36.948Z,9.60
2023-05-05T20:03:04.727Z,9.56
2023-05-05T20:05:32.380Z,9.43
2023-05-05T20:08:01.330Z,9.39
2023-05-05T20:10:28.860Z,9.52
2023-05-05T20:12:56.521Z,9.48
2023-05-05T20:15:24.111Z,9.43
2023-05-05T20:17:51.670Z,9.36
2023-05-05T20:20:21.757Z,9.40
2023-05-05T20:22:50.382Z,9.24
2023-05-05T20:25:19.240Z,9.37
2023-05-05T20:27:46.772Z,9.23
2023-05-05T20:30:14.483Z,9.24
2023-05-05T20:32:42.324Z,9.21
2023-05-05T20:35:12.266Z,9.19
2023-05-05T20:37:39.835Z,9.05
2023-05-05T20:40:09.049Z,9.04
2023-05-05T20:42:38.204Z,9.07
2023-05-05T20:45:06.948Z,8.98
2023-05-05T20:47:35.201Z,8.97
2023-05-05T20:50:02.849Z,8.96
2023-05-05T20:52:30.524Z,8.97
2023-05-05T20:54:58.127Z,8.98
2023-05-05T20:57:26.062Z,8.98
2023-05-05T20:59:55.042Z,8.89
2023-05-05T21:02:22.605Z,8.80
2023-05-05T21:04:50.361Z,8.85
2023-05-05T21:07:17.914Z,8.85
2023-05-05T21:09:47.108Z,8.67
2023-05-05T21:12:14.629Z,8.66
2023-05-05T21:14:44.031Z,8.62
2023-05-05T21:17:12.990Z,8.57
2023-05-05T21:19:41.131Z,8.46
2023-05-05T21:22:08.689Z,8.36
2023-05-05T21:24:36.221Z,8.34
2023-05-05T21:27:03.790Z,8.49
2023-05-05T21:29:34.233Z,8.33
2023-05-05T21:32:01.957Z,8.31
2023-05-05T21:34:30.929Z,8.37
2023-05-05T21:36:59.046Z,8.28
2023-05-05T21:39:26.778Z,8.23
2023-05-05T21:41:54.760Z,8.16
2023-05-05T21:44:22.343Z,8.20
2023-05-05T21:46:49.913Z,8.14
2023-05-05T21:49:18.620Z,8.17
2023-05-05T21:51:47.558Z,8.12
2023-05-05T21:54:15.158Z,8.13
2023-05-05T21:56:42.979Z,8.15
2023-05-05T21:59:10.966Z,8.09
2023-05-05T22:01:38.584Z,8.06
2023-05-05T22:04:07.424Z,8.14
2023-05-05T22:06:35.107Z,8.08
2023-05-05T22:09:04.052Z,8.03
2023-05-05T22:11:31.649Z,8.03
2023-05-05T22:13:59.165Z,8.16
2023-05-05T22:16:26.729Z,8.11
2023-05-05T22:18:54.324Z,7.98
2023-05-05T22:21:22.161Z,8.03
2023-05-05T22:23:49.768Z,8.12
2023-05-05T22:26:18.674Z,8.03
2023-05-05T22:28:46.282Z,8.01
2023-05-05T22:31:13.860Z,7.93
2023-05-05T22:33:41.445Z,8.03
2023-05-05T22:36:09.983Z,7.99
2023-05-05T22:38:37.637Z,8.03
2023-05-05T22:41:07.294Z,7.95
2023-05-05T22:43:36.724Z,8.05
2023-05-05T22:46:04.228Z,8.02
2023-05-05T22:48:31.758Z,8.04
2023-05-05T22:50:59.779Z,7.99
2023-05-05T22:53:27.323Z,8.07
2023-05-05T22:55:55.059Z,8.07
2023-05-05T22:58:22.870Z,7.98
2023-05-05T23:00:51.779Z,7.96
2023-05-05T23:03:19.385Z,8.00
2023-05-05T23:05:46.936Z,7.96
2023-05-05T23:08:14.490Z,8.02
2023-05-05T23:10:41.994Z,7.98
2023-05-05T23:13:09.610Z,7.94
2023-05-05T23:15:37.221Z,7.92
2023-05-05T23:18:06.249Z,7.95
2023-05-05T23:20:33.904Z,8.02
2023-05-05T23:23:01.467Z,7.97
2023-05-05T23:25:29.051Z,8.04
2023-05-05T23:27:56.607Z,7.88
2023-05-05T23:30:24.156Z,7.85
2023-05-05T23:32:51.712Z,7.84
2023-05-05T23:35:21.356Z,7.82
2023-05-05T23:37:48.925Z,7.88
2023-05-05T23:40:16.484Z,7.90
2023-05-05T23:42:44.014Z,7.91
2023-05-05T23:45:12.217Z,7.93
2023-05-05T23:47:40.045Z,7.98
2023-05-05T23:50:08.964Z,7.91
2023-05-05T23:52:37.818Z,7.91
2023-05-05T23:55:06.738Z,7.99
2023-05-05T23:57:35.174Z,7.97
